createdAt,value
2023-09-19T00:01:53.740Z,100.00
2023-09-19T00:04:24.932Z,100.00
2023-09-19T00:06:51.611Z,100.00
2023-09-19T00:09:18.260Z,100.00
2023-09-19T00:11:45.773Z,100.00
2023-09-19T00:14:15.727Z,100.00
2023-09-19T00:16:42.556Z,100.00
2023-09-19T00:19:10.392Z,100.00
2023-09-19T00:21:39.054Z,100.00
2023-09-19T00:24:07.372Z,100.00
2023-09-19T00:26:35.531Z,100.00
2023-09-19T00:29:04.913Z,100.00
2023-09-19T00:31:32.252Z,100.00
2023-09-19T00:34:01.278Z,100.00
2023-09-19T00:36:27.970Z,100.00
2023-09-19T00:38:54.585Z,100.00
2023-09-19T00:41:22.281Z,100.00
2023-09-19T00:43:49.212Z,100.00
2023-09-19T00:46:18.948Z,100.00
2023-09-19T00:48:45.819Z,100.00
2023-09-19T00:51:14.892Z,100.00
2023-09-19T00:53:47.672Z,100.00
2023-09-19T00:56:16.323Z,100.00
2023-09-19T00:58:43.220Z,100.00
2023-09-19T01:01:10.085Z,100.00
2023-09-19T01:03:38.390Z,100.00
2023-09-19T01:06:05.486Z,100.00
2023-09-19T01:08:32.936Z,100.00
2023-09-19T01:11:19.083Z,100.00
2023-09-19T01:14:08.571Z,100.00
2023-09-19T01:16:47.326Z,100.00
2023-09-19T01:19:35.138Z,100.00
2023-09-19T01:22:30.214Z,100.00
2023-09-19T01:25:21.394Z,100.00
2023-09-19T01:27:58.792Z,100.00
2023-09-19T01:30:32.658Z,100.00
2023-09-19T01:33:00.709Z,100.00
2023-09-19T01:35:27.426Z,100.00
2023-09-19T01:37:55.005Z,100.00
2023-09-19T01:40:24.923Z,100.00
2023-09-19T01:43:05.691Z,100.00
2023-09-19T01:45:48.126Z,100.00
2023-09-19T01:48:27.954Z,100.00
2023-09-19T01:51:03.849Z,100.00
2023-09-19T01:53:52.758Z,100.00
2023-09-19T01:56:26.584Z,100.00
2023-09-19T01:58:57.911Z,100.00
2023-09-19T02:01:27.912Z,100.00
2023-09-19T02:03:55.413Z,100.00
2023-09-19T02:06:22.967Z,100.00
2023-09-19T02:08:50.443Z,100.00
2023-09-19T02:11:17.338Z,100.00
2023-09-19T02:13:44.631Z,100.00
2023-09-19T02:16:12.796Z,100.00
2023-09-19T02:18:40.633Z,100.00
2023-09-19T02:21:13.687Z,100.00
2023-09-19T02:23:41.079Z,100.00
2023-09-19T02:26:08.512Z,100.00
2023-09-19T02:28:37.193Z,100.00
2023-09-19T02:31:03.893Z,100.00
2023-09-19T02:33:34.106Z,100.00
2023-09-19T02:36:02.428Z,100.00
2023-09-19T02:38:30.387Z,100.00
2023-09-19T02:40:57.746Z,100.00
2023-09-19T02:43:24.943Z,100.00
2023-09-19T02:45:52.072Z,100.00
2023-09-19T02:48:19.621Z,100.00
2023-09-19T02:50:47.871Z,100.00
2023-09-19T02:53:15.150Z,100.00
2023-09-19T02:55:42.129Z,100.00
2023-09-19T02:58:09.280Z,100.00
2023-09-19T03:00:36.812Z,100.00
2023-09-19T03:03:03.713Z,100.00
2023-09-19T03:05:33.050Z,100.00
2023-09-19T03:08:02.050Z,100.00
2023-09-19T03:10:29.373Z,100.00
2023-09-19T03:12:56.236Z,100.00
2023-09-19T03:15:23.248Z,100.00
2023-09-19T03:17:50.767Z,100.00
2023-09-19T03:20:18.850Z,100.00
2023-09-19T03:22:47.093Z,100.00
2023-09-19T03:25:14.901Z,100.00
2023-09-19T03:27:41.921Z,100.00
2023-09-19T03:30:10.195Z,100.00
2023-09-19T03:32:37.460Z,100.00
2023-09-19T03:35:06.612Z,100.00
2023-09-19T03:37:34.447Z,100.00
2023-09-19T03:40:06.051Z,100.00
2023-09-19T03:42:33.273Z,100.00
2023-09-19T03:45:02.167Z,100.00
2023-09-19T03:47:28.879Z,100.00
2023-09-19T03:49:55.636Z,100.00
2023-09-19T03:52:22.353Z,100.00
2023-09-19T03:54:49.071Z,100.00
2023-09-19T03:57:18.402Z,100.00
2023-09-19T03:59:45.176Z,100.00
2023-09-19T04:02:23.619Z,100.00
2023-09-19T04:04:50.999Z,100.00
2023-09-19T04:07:18.657Z,100.00
2023-09-19T04:09:45.398Z,100.00
2023-09-19T04:12:12.431Z,100.00
2023-09-19T04:14:39.905Z,100.00
2023-09-19T04:17:08.775Z,100.00
2023-09-19T04:19:38.322Z,100.00
2023-09-19T04:22:05.649Z,100.00
2023-09-19T04:24:33.477Z,100.00
2023-09-19T04:27:02.969Z,100.00
2023-09-19T04:29:33.132Z,100.00
2023-09-19T04:31:59.866Z,100.00
2023-09-19T04:34:26.706Z,100.00
2023-09-19T04:36:54.216Z,100.00
2023-09-19T04:39:22.277Z,100.00
2023-09-19T04:41:49.467Z,100.00
2023-09-19T04:44:17.140Z,100.00
2023-09-19T04:46:44.041Z,100.00
2023-09-19T04:49:10.829Z,100.00
2023-09-19T04:51:37.848Z,100.00
2023-09-19T04:54:05.182Z,100.00
2023-09-19T04:56:32.881Z,100.00
2023-09-19T04:59:00.218Z,100.00
2023-09-19T05:01:27.523Z,100.00
2023-09-19T05:03:54.353Z,100.00
2023-09-19T05:06:24.087Z,100.00
2023-09-19T05:08:54.551Z,100.00
2023-09-19T05:11:25.793Z,100.00
2023-09-19T05:13:54.504Z,100.00
2023-09-19T05:16:21.658Z,100.00
2023-09-19T05:18:48.441Z,100.00
2023-09-19T05:21:15.149Z,100.00
2023-09-19T05:23:42.651Z,100.00
2023-09-19T05:26:09.892Z,100.00
2023-09-19T05:28:37.125Z,100.00
2023-09-19T05:31:03.998Z,100.00
2023-09-19T05:33:33.387Z,100.00
2023-09-19T05:36:00.363Z,100.00
2023-09-19T05:38:27.916Z,100.00
2023-09-19T05:40:55.398Z,100.00
2023-09-19T05:43:22.348Z,100.00
2023-09-19T05:45:49.390Z,100.00
2023-09-19T05:48:17.750Z,100.00
2023-09-19T05:50:46.133Z,100.00
2023-09-19T05:53:16.039Z,100.00
2023-09-19T05:55:43.109Z,100.00
2023-09-19T05:58:11.484Z,100.00
2023-09-19T06:00:39.746Z,100.00
2023-09-19T06:03:07.083Z,100.00
2023-09-19T06:05:34.144Z,100.00
2023-09-19T06:08:02.059Z,100.00
2023-09-19T06:10:29.489Z,100.00
2023-09-19T06:12:59.725Z,100.00
2023-09-19T06:15:27.160Z,100.00
2023-09-19T06:17:59.267Z,100.00
2023-09-19T06:20:27.175Z,100.00
2023-09-19T06:22:54.771Z,100.00
2023-09-19T06:25:23.522Z,100.00
2023-09-19T06:27:56.255Z,100.00
2023-09-19T06:30:26.937Z,100.00
2023-09-19T06:32:58.540Z,100.00
2023-09-19T06:35:30.948Z,100.00
2023-09-19T06:37:59.778Z,100.00
2023-09-19T06:40:26.895Z,100.00
2023-09-19T06:42:55.704Z,100.00
2023-09-19T06:45:23.410Z,100.00
2023-09-19T06:47:52.533Z,100.00
2023-09-19T06:50:23.410Z,100.00
2023-09-19T06:52:53.090Z,100.00
2023-09-19T06:55:21.578Z,100.00
2023-09-19T06:57:49.441Z,100.00
2023-09-19T07:00:17.333Z,100.00
2023-09-19T07:02:44.440Z,100.00
2023-09-19T07:05:11.686Z,100.00
2023-09-19T07:07:38.505Z,100.00
2023-09-19T07:10:06.946Z,100.00
2023-09-19T07:12:36.669Z,100.00
2023-09-19T07:15:04.057Z,100.00
2023-09-19T07:17:31.186Z,100.00
2023-09-19T07:19:59.206Z,100.00
2023-09-19T07:22:28.280Z,100.00
2023-09-19T07:24:55.231Z,100.00
2023-09-19T07:27:22.003Z,100.00
2023-09-19T07:29:50.661Z,100.00
2023-09-19T07:32:19.067Z,100.00
2023-09-19T07:34:46.060Z,100.00
2023-09-19T07:37:14.504Z,100.00
2023-09-19T07:39:42.624Z,100.00
2023-09-19T07:42:09.394Z,100.00
2023-09-19T07:44:37.534Z,100.00
2023-09-19T07:47:04.633Z,100.00
2023-09-19T07:49:31.509Z,100.00
2023-09-19T07:51:58.659Z,100.00
2023-09-19T07:54:25.542Z,100.00
2023-09-19T07:56:52.232Z,100.00
2023-09-19T07:59:18.925Z,100.00
2023-09-19T08:01:45.882Z,100.00
2023-09-19T08:04:12.738Z,100.00
2023-09-19T08:06:40.628Z,100.00
2023-09-19T08:09:10.611Z,100.00
2023-09-19T08:11:37.290Z,100.00
2023-09-19T08:14:04.086Z,100.00
2023-09-19T08:16:31.022Z,100.00
2023-09-19T08:18:57.799Z,100.00
2023-09-19T08:21:25.628Z,100.00
2023-09-19T08:23:52.344Z,100.00
2023-09-19T08:26:19.015Z,100.00
2023-09-19T08:28:45.746Z,100.00
2023-09-19T08:31:12.660Z,100.00
2023-09-19T08:33:39.910Z,100.00
2023-09-19T08:36:08.606Z,100.00
2023-09-19T08:38:36.879Z,100.00
2023-09-19T08:41:09.421Z,100.00
2023-09-19T08:43:36.818Z,100.00
2023-09-19T08:46:06.321Z,98.65
2023-09-19T08:48:35.782Z,99.60
2023-09-19T08:51:11.791Z,97.27
2023-09-19T08:54:00.582Z,97.69
2023-09-19T08:56:28.002Z,95.37
2023-09-19T08:59:05.615Z,97.92
2023-09-19T09:01:33.925Z,97.10
2023-09-19T09:04:03.263Z,96.28
2023-09-19T09:06:31.121Z,99.20
2023-09-19T09:08:57.987Z,91.15
2023-09-19T09:11:26.346Z,88.95
2023-09-19T09:13:53.113Z,93.32
2023-09-19T09:16:20.610Z,90.87
2023-09-19T09:18:54.436Z,90.95
2023-09-19T09:21:23.157Z,91.29
2023-09-19T09:23:51.205Z,90.81
2023-09-19T09:26:17.940Z,92.58
2023-09-19T09:28:49.721Z,93.84
2023-09-19T09:31:26.590Z,94.53
2023-09-19T09:33:57.284Z,92.33
2023-09-19T09:36:42.894Z,91.27
2023-09-19T09:39:26.730Z,89.47
2023-09-19T09:41:53.639Z,90.66
2023-09-19T09:44:20.841Z,90.90
2023-09-19T09:46:55.943Z,86.69
2023-09-19T09:49:35.571Z,89.77
2023-09-19T09:52:18.460Z,82.64
2023-09-19T09:55:07.397Z,82.66
2023-09-19T09:57:34.941Z,82.08
2023-09-19T10:00:15.346Z,77.46
2023-09-19T10:02:42.815Z,80.50
2023-09-19T10:05:29.870Z,80.93
2023-09-19T10:08:02.141Z,82.39
2023-09-19T10:10:44.452Z,82.41
2023-09-19T10:13:19.395Z,84.52
2023-09-19T10:15:53.781Z,83.81
2023-09-19T10:18:26.395Z,86.49
2023-09-19T10:20:53.492Z,87.82
2023-09-19T10:23:25.242Z,88.96
2023-09-19T10:25:53.678Z,89.70
2023-09-19T10:28:23.696Z,88.97
2023-09-19T10:30:52.858Z,86.85
2023-09-19T10:33:22.249Z,88.87
2023-09-19T10:35:52.934Z,88.15
2023-09-19T10:38:22.405Z,86.25
2023-09-19T10:40:52.201Z,82.79
2023-09-19T10:43:20.791Z,81.91
2023-09-19T10:45:50.686Z,83.22
2023-09-19T10:48:21.727Z,84.59
2023-09-19T10:51:06.285Z,90.27
2023-09-19T10:53:48.572Z,87.37
2023-09-19T10:56:29.075Z,80.97
2023-09-19T10:59:12.402Z,80.46
2023-09-19T11:01:52.772Z,79.64
2023-09-19T11:04:40.268Z,79.26
2023-09-19T11:07:16.814Z,79.81
2023-09-19T11:09:54.720Z,77.99
2023-09-19T11:12:30.472Z,80.48
2023-09-19T11:14:57.171Z,79.79
2023-09-19T11:17:38.877Z,81.20
2023-09-19T11:20:15.812Z,79.82
2023-09-19T11:22:53.314Z,76.11
2023-09-19T11:25:33.418Z,76.98
2023-09-19T11:28:26.565Z,68.15
2023-09-19T11:30:56.840Z,69.75
2023-09-19T11:33:34.569Z,72.96
2023-09-19T11:36:06.581Z,69.16
2023-09-19T11:38:51.538Z,67.92
2023-09-19T11:41:21.217Z,67.88
2023-09-19T11:43:48.954Z,68.26
2023-09-19T11:46:17.801Z,65.92
2023-09-19T11:48:45.682Z,66.99
2023-09-19T11:51:20.675Z,64.53
2023-09-19T11:53:50.834Z,61.88
2023-09-19T11:56:19.422Z,62.58
2023-09-19T11:58:47.056Z,65.77
2023-09-19T12:01:16.102Z,63.02
2023-09-19T12:03:49.181Z,60.48
2023-09-19T12:06:16.722Z,63.41
2023-09-19T12:08:44.913Z,64.48
2023-09-19T12:11:16.510Z,62.78
2023-09-19T12:13:47.878Z,66.13
2023-09-19T12:16:23.269Z,65.92
2023-09-19T12:18:52.757Z,65.46
2023-09-19T12:21:28.475Z,67.35
2023-09-19T12:24:05.830Z,64.67
2023-09-19T12:26:46.779Z,64.97
2023-09-19T12:29:18.935Z,64.59
2023-09-19T12:31:56.739Z,63.57
2023-09-19T12:34:36.263Z,62.60
2023-09-19T12:37:14.434Z,65.20
2023-09-19T12:39:42.460Z,60.56
2023-09-19T12:42:11.424Z,58.68
2023-09-19T12:44:42.835Z,57.12
2023-09-19T12:47:15.440Z,57.66
2023-09-19T12:50:07.777Z,57.15
2023-09-19T12:52:42.920Z,60.21
2023-09-19T12:55:30.156Z,57.59
2023-09-19T12:57:59.227Z,58.12
2023-09-19T13:00:43.449Z,56.72
2023-09-19T13:03:29.871Z,59.25
2023-09-19T13:06:02.126Z,56.20
2023-09-19T13:08:33.784Z,56.46
2023-09-19T13:11:19.074Z,58.05
2023-09-19T13:13:55.163Z,59.53
2023-09-19T13:16:24.459Z,58.01
2023-09-19T13:18:58.346Z,56.79
2023-09-19T13:21:44.356Z,58.99
2023-09-19T13:24:29.011Z,57.19
2023-09-19T13:26:56.200Z,60.29
2023-09-19T13:29:23.408Z,58.82
2023-09-19T13:31:51.483Z,55.57
2023-09-19T13:34:18.901Z,57.43
2023-09-19T13:36:46.292Z,58.11
2023-09-19T13:39:17.327Z,58.71
2023-09-19T13:41:49.205Z,60.01
2023-09-19T13:44:16.274Z,59.40
2023-09-19T13:46:47.314Z,60.52
2023-09-19T13:49:14.742Z,59.48
2023-09-19T13:51:45.439Z,57.79
2023-09-19T13:54:15.723Z,57.93
2023-09-19T13:56:42.524Z,56.81
2023-09-19T13:59:09.412Z,60.67
2023-09-19T14:01:36.299Z,57.98
2023-09-19T14:04:03.845Z,55.58
2023-09-19T14:06:30.694Z,57.14
2023-09-19T14:08:57.562Z,55.41
2023-09-19T14:11:24.312Z,56.85
2023-09-19T14:13:51.062Z,56.39
2023-09-19T14:16:19.001Z,57.73
2023-09-19T14:18:47.126Z,59.19
2023-09-19T14:21:13.965Z,58.70
2023-09-19T14:23:40.836Z,58.34
2023-09-19T14:26:07.626Z,57.00
2023-09-19T14:28:37.832Z,59.76
2023-09-19T14:31:11.347Z,63.00
2023-09-19T14:33:39.524Z,62.39
2023-09-19T14:36:07.890Z,60.42
2023-09-19T14:38:35.392Z,60.37
2023-09-19T14:41:06.089Z,63.59
2023-09-19T14:43:34.094Z,63.80
2023-09-19T14:46:11.951Z,60.49
2023-09-19T14:48:39.174Z,62.02
2023-09-19T14:51:09.889Z,63.34
2023-09-19T14:53:40.646Z,66.33
2023-09-19T14:56:10.364Z,63.67
2023-09-19T14:58:37.448Z,64.18
2023-09-19T15:01:11.539Z,62.17
2023-09-19T15:03:40.920Z,62.39
2023-09-19T15:06:18.389Z,62.21
2023-09-19T15:08:49.276Z,62.07
2023-09-19T15:11:20.112Z,61.54
2023-09-19T15:13:51.861Z,63.61
2023-09-19T15:16:18.633Z,62.79
2023-09-19T15:18:49.169Z,63.79
2023-09-19T15:21:16.595Z,60.46
2023-09-19T15:23:44.425Z,62.44
2023-09-19T15:26:13.098Z,62.89
2023-09-19T15:28:41.115Z,63.34
2023-09-19T15:31:10.622Z,63.72
2023-09-19T15:33:38.652Z,64.52
2023-09-19T15:36:13.196Z,64.31
2023-09-19T15:39:12.379Z,63.71
2023-09-19T15:41:46.140Z,64.48
2023-09-19T15:44:18.825Z,65.00
2023-09-19T15:46:46.373Z,65.09
2023-09-19T15:49:14.499Z,65.34
2023-09-19T15:51:41.888Z,66.21
2023-09-19T15:54:15.092Z,65.85
2023-09-19T15:56:43.206Z,65.07
2023-09-19T15:59:16.462Z,65.02
2023-09-19T16:01:45.026Z,66.19
2023-09-19T16:04:13.792Z,64.79
2023-09-19T16:06:42.402Z,66.84
2023-09-19T16:09:11.394Z,66.28
2023-09-19T16:11:38.364Z,67.76
2023-09-19T16:14:07.669Z,70.30
2023-09-19T16:16:36.549Z,70.76
2023-09-19T16:19:04.899Z,71.59
2023-09-19T16:21:34.151Z,72.73
2023-09-19T16:24:01.182Z,72.56
2023-09-19T16:26:30.034Z,70.71
2023-09-19T16:29:02.121Z,71.75
2023-09-19T16:31:30.783Z,73.35
2023-09-19T16:33:57.979Z,72.60
2023-09-19T16:36:25.319Z,73.28
2023-09-19T16:38:52.788Z,71.80
2023-09-19T16:41:20.717Z,75.21
2023-09-19T16:43:47.772Z,73.58
2023-09-19T16:46:18.084Z,73.88
2023-09-19T16:51:17.821Z,72.52
2023-09-19T16:53:47.071Z,74.91
2023-09-19T16:56:15.646Z,75.71
2023-09-19T16:58:43.987Z,76.38
2023-09-19T17:01:12.401Z,77.63
2023-09-19T17:03:42.751Z,79.89
2023-09-19T17:06:15.913Z,80.59
2023-09-19T17:08:47.232Z,81.51
2023-09-19T17:11:17.585Z,81.59
2023-09-19T17:13:48.642Z,82.86
2023-09-19T17:16:20.053Z,82.84
2023-09-19T17:18:48.648Z,83.11
2023-09-19T17:21:16.573Z,82.82
2023-09-19T17:23:43.491Z,83.54
2023-09-19T17:26:15.448Z,84.50
2023-09-19T17:28:43.372Z,86.01
2023-09-19T17:31:18.641Z,86.20
2023-09-19T17:33:47.376Z,87.21
2023-09-19T17:36:19.296Z,88.08
2023-09-19T17:38:50.537Z,89.96
2023-09-19T17:41:17.709Z,90.17
2023-09-19T17:43:48.805Z,91.09
2023-09-19T17:46:17.894Z,91.17
2023-09-19T17:48:47.466Z,91.77
2023-09-19T17:51:16.088Z,92.75
2023-09-19T17:53:43.836Z,93.67
2023-09-19T17:56:18.054Z,93.40
2023-09-19T17:58:47.433Z,93.88
2023-09-19T18:01:19.274Z,93.62
2023-09-19T18:03:46.224Z,94.24
2023-09-19T18:06:14.929Z,94.47
2023-09-19T18:08:45.180Z,95.27
2023-09-19T18:11:17.254Z,96.10
2023-09-19T18:13:45.604Z,96.39
2023-09-19T18:16:13.055Z,96.37
2023-09-19T18:18:40.006Z,96.97
2023-09-19T18:21:07.171Z,97.18
2023-09-19T18:23:35.220Z,97.42
2023-09-19T18:26:09.243Z,97.74
2023-09-19T18:28:40.443Z,98.49
2023-09-19T18:31:10.899Z,98.76
2023-09-19T18:36:07.839Z,99.66
2023-09-19T18:41:12.770Z,99.35
2023-09-19T18:43:40.701Z,98.94
2023-09-19T18:46:14.781Z,99.05
2023-09-19T18:48:48.339Z,99.62
2023-09-19T18:51:18.421Z,99.17
2023-09-19T18:53:56.778Z,100.00
2023-09-19T18:56:28.599Z,100.00
2023-09-19T18:58:56.073Z,100.00
2023-09-19T19:01:22.832Z,100.00
2023-09-19T19:03:53.317Z,100.00
2023-09-19T19:06:20.093Z,100.00
2023-09-19T19:08:47.493Z,100.00
2023-09-19T19:11:22.907Z,100.00
2023-09-19T19:13:53.577Z,100.00
2023-09-19T19:16:21.749Z,100.00
2023-09-19T19:18:49.639Z,100.00
2023-09-19T19:21:17.451Z,100.00
2023-09-19T19:23:44.489Z,100.00
2023-09-19T19:26:12.622Z,100.00
2023-09-19T19:28:41.903Z,100.00
2023-09-19T19:31:10.888Z,100.00
2023-09-19T19:33:40.070Z,100.00
2023-09-19T19:36:08.906Z,100.00
2023-09-19T19:38:35.881Z,100.00
2023-09-19T19:41:03.000Z,100.00
2023-09-19T19:43:30.057Z,100.00
2023-09-19T19:46:02.262Z,100.00
2023-09-19T19:48:30.541Z,100.00
2023-09-19T19:50:58.819Z,100.00
2023-09-19T19:53:26.173Z,100.00
2023-09-19T19:55:53.005Z,100.00
2023-09-19T19:58:22.628Z,100.00
2023-09-19T20:00:51.003Z,100.00
2023-09-19T20:03:18.782Z,100.00
2023-09-19T20:05:47.766Z,100.00
2023-09-19T20:08:14.772Z,100.00
2023-09-19T20:10:42.230Z,100.00
2023-09-19T20:13:10.345Z,100.00
2023-09-19T20:15:40.100Z,100.00
2023-09-19T20:18:14.519Z,100.00
2023-09-19T20:20:41.288Z,100.00
2023-09-19T20:23:08.196Z,100.00
2023-09-19T20:25:35.863Z,100.00
2023-09-19T20:28:04.338Z,100.00
2023-09-19T20:30:32.916Z,100.00
2023-09-19T20:33:03.115Z,100.00
2023-09-19T20:35:30.402Z,100.00
2023-09-19T20:38:02.132Z,100.00
2023-09-19T20:40:29.062Z,100.00
2023-09-19T20:42:55.935Z,100.00
2023-09-19T20:45:22.762Z,100.00
2023-09-19T20:47:51.575Z,100.00
2023-09-19T20:50:19.876Z,100.00
2023-09-19T20:52:46.819Z,100.00
2023-09-19T20:55:13.570Z,100.00
2023-09-19T20:57:40.245Z,100.00
2023-09-19T21:00:09.999Z,100.00
2023-09-19T21:02:38.615Z,100.00
2023-09-19T21:05:06.116Z,100.00
2023-09-19T21:07:33.367Z,100.00
2023-09-19T21:10:01.253Z,100.00
2023-09-19T21:12:27.954Z,100.00
2023-09-19T21:14:54.836Z,100.00
2023-09-19T21:17:21.659Z,100.00
2023-09-19T21:19:48.506Z,100.00
2023-09-19T21:22:15.438Z,100.00
2023-09-19T21:24:42.407Z,100.00
2023-09-19T21:27:09.330Z,100.00
2023-09-19T21:29:35.980Z,100.00
2023-09-19T21:32:03.573Z,100.00
2023-09-19T21:34:31.057Z,100.00
2023-09-19T21:36:58.360Z,100.00
2023-09-19T21:39:25.113Z,100.00
2023-09-19T21:41:52.773Z,100.00
2023-09-19T21:44:19.601Z,100.00
2023-09-19T21:46:46.582Z,100.00
2023-09-19T21:49:13.490Z,100.00
2023-09-19T21:51:40.229Z,100.00
2023-09-19T21:54:07.074Z,100.00
2023-09-19T21:56:33.849Z,100.00
2023-09-19T21:59:00.667Z,100.00
2023-09-19T22:01:29.200Z,100.00
2023-09-19T22:03:56.089Z,100.00
2023-09-19T22:06:22.984Z,100.00
2023-09-19T22:08:51.360Z,100.00
2023-09-19T22:11:21.906Z,100.00
2023-09-19T22:13:49.708Z,100.00
2023-09-19T22:16:18.281Z,100.00
2023-09-19T22:18:51.921Z,100.00
2023-09-19T22:21:24.256Z,100.00
2023-09-19T22:23:51.418Z,100.00
2023-09-19T22:26:24.279Z,100.00
2023-09-19T22:28:54.382Z,100.00
2023-09-19T22:31:24.151Z,100.00
2023-09-19T22:33:56.298Z,100.00
2023-09-19T22:36:40.409Z,100.00
2023-09-19T22:39:17.884Z,100.00
2023-09-19T22:41:44.676Z,100.00
2023-09-19T22:44:11.898Z,100.00
2023-09-19T22:46:38.734Z,100.00
2023-09-19T22:49:13.602Z,100.00
2023-09-19T22:51:47.442Z,100.00
2023-09-19T22:54:14.358Z,100.00
2023-09-19T22:56:41.751Z,100.00
2023-09-19T22:59:09.470Z,100.00
2023-09-19T23:01:42.920Z,100.00
2023-09-19T23:04:12.988Z,100.00
2023-09-19T23:06:40.860Z,100.00
2023-09-19T23:09:10.398Z,100.00
2023-09-19T23:11:37.378Z,100.00
2023-09-19T23:14:04.060Z,100.00
2023-09-19T23:16:34.619Z,100.00
2023-09-19T23:19:21.226Z,100.00
2023-09-19T23:21:52.575Z,100.00
2023-09-19T23:24:20.514Z,100.00
2023-09-19T23:26:47.570Z,100.00
2023-09-19T23:29:14.249Z,100.00
2023-09-19T23:31:45.234Z,100.00
2023-09-19T23:34:15.038Z,100.00
2023-09-19T23:36:41.800Z,100.00
2023-09-19T23:39:09.711Z,100.00
2023-09-19T23:41:39.518Z,100.00
2023-09-19T23:44:14.175Z,100.00
2023-09-19T23:46:42.831Z,100.00
2023-09-19T23:49:10.860Z,100.00
2023-09-19T23:51:39.569Z,100.00
2023-09-19T23:54:08.108Z,100.00
2023-09-19T23:56:34.807Z,100.00
2023-09-19T23:59:02.091Z,100.00
